East Lewisburg, Pennsylvania
Current Conditions -  °F | °C
As of 1:19 PM on Monday 26 Jan 2015 (Local Time) from KSEG Reporting Station
Light Snow Light Snow  
Wind Chill: 18°   Ceiling: 2500
Heat Index: 26°   Visibility: 1.7mi
Dew Point: 19°   Wind: 7mph
Humidity: 75%   Direction: 50°NE
Pressure: 29.83"   Gusts: NA
Location:  41.0147°N, 76.8093°W
Report Text: KSEG 261819Z AUTO 05006KT 1 3/4SM -SN OVC025 M03/M07 A2983 RMK AO2 P0000 T10331072
Loading
Personal Weather Stations






























Interactive Weather Map New forecast layout! Learn more

10-Day Weather Forecast

Advertisements
Track Severe Weather on mobile